sensor_id;sensor_type;location;lat;lon;timestamp;P1;durP1;ratioP1;P2;durP2;ratioP2
12625;SDS011;6378;42.684;23.372;2022-10-18T00:00:38;21.63;;;14.80;;
12625;SDS011;6378;42.684;23.372;2022-10-18T00:03:04;19.17;;;13.20;;
12625;SDS011;6378;42.684;23.372;2022-10-18T00:05:29;23.80;;;13.57;;
12625;SDS011;6378;42.684;23.372;2022-10-18T00:07:54;21.63;;;13.03;;
12625;SDS011;6378;42.684;23.372;2022-10-18T00:10:20;19.13;;;12.90;;
12625;SDS011;6378;42.684;23.372;2022-10-18T00:12:45;23.50;;;13.63;;
12625;SDS011;6378;42.684;23.372;2022-10-18T00:15:11;21.07;;;12.93;;
12625;SDS011;6378;42.684;23.372;2022-10-18T00:17:37;19.20;;;12.87;;
12625;SDS011;6378;42.684;23.372;2022-10-18T00:20:03;17.50;;;11.97;;
12625;SDS011;6378;42.684;23.372;2022-10-18T00:22:32;18.27;;;12.37;;
12625;SDS011;6378;42.684;23.372;2022-10-18T00:24:59;20.67;;;12.50;;
12625;SDS011;6378;42.684;23.372;2022-10-18T00:27:26;19.37;;;13.13;;
12625;SDS011;6378;42.684;23.372;2022-10-18T00:29:53;19.33;;;13.97;;
12625;SDS011;6378;42.684;23.372;2022-10-18T00:32:19;20.27;;;13.80;;
12625;SDS011;6378;42.684;23.372;2022-10-18T00:34:44;22.30;;;15.07;;
12625;SDS011;6378;42.684;23.372;2022-10-18T00:37:10;23.90;;;14.83;;
12625;SDS011;6378;42.684;23.372;2022-10-18T00:39:35;18.93;;;13.50;;
12625;SDS011;6378;42.684;23.372;2022-10-18T00:42:01;20.97;;;14.30;;
12625;SDS011;6378;42.684;23.372;2022-10-18T00:46:54;23.37;;;14.83;;
12625;SDS011;6378;42.684;23.372;2022-10-18T00:49:26;22.43;;;14.50;;
12625;SDS011;6378;42.684;23.372;2022-10-18T00:52:06;21.03;;;14.27;;
12625;SDS011;6378;42.684;23.372;2022-10-18T00:54:36;24.20;;;14.67;;
12625;SDS011;6378;42.684;23.372;2022-10-18T00:57:04;20.93;;;14.40;;
12625;SDS011;6378;42.684;23.372;2022-10-18T00:59:30;20.63;;;14.63;;
12625;SDS011;6378;42.684;23.372;2022-10-18T01:01:57;20.00;;;14.10;;
12625;SDS011;6378;42.684;23.372;2022-10-18T01:04:22;20.57;;;13.93;;
12625;SDS011;6378;42.684;23.372;2022-10-18T01:06:56;20.00;;;13.27;;
12625;SDS011;6378;42.684;23.372;2022-10-18T01:09:30;19.17;;;12.97;;
12625;SDS011;6378;42.684;23.372;2022-10-18T01:12:46;19.90;;;13.80;;
12625;SDS011;6378;42.684;23.372;2022-10-18T01:17:58;23.50;;;14.07;;
12625;SDS011;6378;42.684;23.372;2022-10-18T01:32:39;16.83;;;11.37;;
12625;SDS011;6378;42.684;23.372;2022-10-18T01:35:10;16.60;;;11.90;;
12625;SDS011;6378;42.684;23.372;2022-10-18T01:37:41;16.13;;;12.07;;
12625;SDS011;6378;42.684;23.372;2022-10-18T01:40:10;16.43;;;11.50;;
12625;SDS011;6378;42.684;23.372;2022-10-18T01:42:38;21.43;;;12.10;;
12625;SDS011;6378;42.684;23.372;2022-10-18T01:45:04;15.63;;;10.87;;
12625;SDS011;6378;42.684;23.372;2022-10-18T01:47:32;15.13;;;10.93;;
12625;SDS011;6378;42.684;23.372;2022-10-18T01:50:01;15.40;;;11.03;;
12625;SDS011;6378;42.684;23.372;2022-10-18T01:52:30;17.93;;;10.63;;
12625;SDS011;6378;42.684;23.372;2022-10-18T01:54:56;16.97;;;11.90;;
12625;SDS011;6378;42.684;23.372;2022-10-18T02:07:40;16.67;;;12.03;;
12625;SDS011;6378;42.684;23.372;2022-10-18T02:10:37;17.10;;;11.20;;
12625;SDS011;6378;42.684;23.372;2022-10-18T02:16:24;16.80;;;11.03;;
12625;SDS011;6378;42.684;23.372;2022-10-18T02:18:57;15.70;;;10.80;;
12625;SDS011;6378;42.684;23.372;2022-10-18T02:21:25;19.17;;;12.13;;
12625;SDS011;6378;42.684;23.372;2022-10-18T02:23:53;17.03;;;11.87;;
12625;SDS011;6378;42.684;23.372;2022-10-18T02:26:22;14.43;;;11.17;;
12625;SDS011;6378;42.684;23.372;2022-10-18T02:28:48;19.63;;;11.13;;
12625;SDS011;6378;42.684;23.372;2022-10-18T02:31:21;15.53;;;10.93;;
12625;SDS011;6378;42.684;23.372;2022-10-18T02:36:34;16.33;;;10.60;;
12625;SDS011;6378;42.684;23.372;2022-10-18T02:39:06;13.77;;;9.27;;
12625;SDS011;6378;42.684;23.372;2022-10-18T02:41:40;13.03;;;9.83;;
12625;SDS011;6378;42.684;23.372;2022-10-18T02:44:06;16.93;;;9.80;;
12625;SDS011;6378;42.684;23.372;2022-10-18T02:46:32;15.40;;;9.50;;
12625;SDS011;6378;42.684;23.372;2022-10-18T02:48:58;11.87;;;9.70;;
12625;SDS011;6378;42.684;23.372;2022-10-18T02:51:24;14.63;;;9.63;;
12625;SDS011;6378;42.684;23.372;2022-10-18T02:53:49;15.63;;;10.07;;
12625;SDS011;6378;42.684;23.372;2022-10-18T02:56:15;12.40;;;8.90;;
12625;SDS011;6378;42.684;23.372;2022-10-18T02:58:40;14.30;;;9.70;;
12625;SDS011;6378;42.684;23.372;2022-10-18T03:01:06;13.70;;;9.93;;
12625;SDS011;6378;42.684;23.372;2022-10-18T03:03:31;12.30;;;9.23;;
12625;SDS011;6378;42.684;23.372;2022-10-18T03:05:57;15.00;;;10.17;;
12625;SDS011;6378;42.684;23.372;2022-10-18T03:08:23;14.57;;;10.10;;
12625;SDS011;6378;42.684;23.372;2022-10-18T03:10:49;14.07;;;9.57;;
12625;SDS011;6378;42.684;23.372;2022-10-18T03:13:14;17.83;;;10.50;;
12625;SDS011;6378;42.684;23.372;2022-10-18T03:15:40;19.43;;;11.23;;
12625;SDS011;6378;42.684;23.372;2022-10-18T03:18:06;17.10;;;11.53;;
12625;SDS011;6378;42.684;23.372;2022-10-18T03:20:32;19.77;;;10.17;;
12625;SDS011;6378;42.684;23.372;2022-10-18T03:22:57;17.07;;;11.53;;
12625;SDS011;6378;42.684;23.372;2022-10-18T03:25:23;18.50;;;11.30;;
12625;SDS011;6378;42.684;23.372;2022-10-18T03:27:48;17.40;;;10.93;;
12625;SDS011;6378;42.684;23.372;2022-10-18T03:30:14;16.87;;;11.50;;
12625;SDS011;6378;42.684;23.372;2022-10-18T03:32:39;18.07;;;10.93;;
12625;SDS011;6378;42.684;23.372;2022-10-18T03:35:05;19.53;;;12.23;;
12625;SDS011;6378;42.684;23.372;2022-10-18T03:37:32;18.97;;;13.03;;
12625;SDS011;6378;42.684;23.372;2022-10-18T03:39:57;21.87;;;14.90;;
12625;SDS011;6378;42.684;23.372;2022-10-18T03:42:23;25.17;;;15.10;;
12625;SDS011;6378;42.684;23.372;2022-10-18T03:44:48;21.47;;;13.40;;
12625;SDS011;6378;42.684;23.372;2022-10-18T03:47:14;23.50;;;14.23;;
12625;SDS011;6378;42.684;23.372;2022-10-18T03:49:39;25.63;;;13.97;;
12625;SDS011;6378;42.684;23.372;2022-10-18T03:52:05;24.47;;;14.60;;
12625;SDS011;6378;42.684;23.372;2022-10-18T03:54:31;20.00;;;13.30;;
12625;SDS011;6378;42.684;23.372;2022-10-18T03:56:57;25.57;;;17.20;;
12625;SDS011;6378;42.684;23.372;2022-10-18T03:59:22;27.70;;;16.90;;
12625;SDS011;6378;42.684;23.372;2022-10-18T04:01:48;26.03;;;16.93;;
12625;SDS011;6378;42.684;23.372;2022-10-18T04:04:13;23.27;;;15.00;;
12625;SDS011;6378;42.684;23.372;2022-10-18T04:06:39;25.77;;;16.00;;
12625;SDS011;6378;42.684;23.372;2022-10-18T04:09:04;30.87;;;19.53;;
12625;SDS011;6378;42.684;23.372;2022-10-18T04:11:30;27.67;;;18.07;;
12625;SDS011;6378;42.684;23.372;2022-10-18T04:13:55;27.67;;;18.30;;
12625;SDS011;6378;42.684;23.372;2022-10-18T04:16:21;23.17;;;15.73;;
12625;SDS011;6378;42.684;23.372;2022-10-18T04:18:46;31.73;;;18.07;;
12625;SDS011;6378;42.684;23.372;2022-10-18T04:21:11;28.53;;;16.43;;
12625;SDS011;6378;42.684;23.372;2022-10-18T04:23:37;26.03;;;16.93;;
12625;SDS011;6378;42.684;23.372;2022-10-18T04:26:02;30.33;;;18.33;;
12625;SDS011;6378;42.684;23.372;2022-10-18T04:28:28;27.77;;;17.87;;
12625;SDS011;6378;42.684;23.372;2022-10-18T04:30:53;29.30;;;18.47;;
12625;SDS011;6378;42.684;23.372;2022-10-18T04:33:19;29.60;;;17.73;;
12625;SDS011;6378;42.684;23.372;2022-10-18T04:35:44;27.57;;;16.33;;
12625;SDS011;6378;42.684;23.372;2022-10-18T04:38:11;24.73;;;16.80;;
12625;SDS011;6378;42.684;23.372;2022-10-18T04:40:38;26.13;;;17.30;;
12625;SDS011;6378;42.684;23.372;2022-10-18T04:43:04;27.37;;;18.97;;
12625;SDS011;6378;42.684;23.372;2022-10-18T04:45:29;28.13;;;17.43;;
12625;SDS011;6378;42.684;23.372;2022-10-18T04:47:55;28.70;;;18.67;;
12625;SDS011;6378;42.684;23.372;2022-10-18T04:50:20;30.57;;;18.73;;
12625;SDS011;6378;42.684;23.372;2022-10-18T04:52:46;34.37;;;20.40;;
12625;SDS011;6378;42.684;23.372;2022-10-18T04:55:11;29.87;;;19.90;;
12625;SDS011;6378;42.684;23.372;2022-10-18T04:57:37;30.50;;;19.17;;
12625;SDS011;6378;42.684;23.372;2022-10-18T05:00:02;31.43;;;19.00;;
12625;SDS011;6378;42.684;23.372;2022-10-18T05:02:28;30.23;;;18.60;;
12625;SDS011;6378;42.684;23.372;2022-10-18T05:04:54;30.87;;;18.77;;
12625;SDS011;6378;42.684;23.372;2022-10-18T05:07:19;37.27;;;21.00;;
12625;SDS011;6378;42.684;23.372;2022-10-18T05:09:45;36.77;;;21.87;;
12625;SDS011;6378;42.684;23.372;2022-10-18T05:12:10;28.83;;;20.57;;
12625;SDS011;6378;42.684;23.372;2022-10-18T05:14:36;33.47;;;21.03;;
12625;SDS011;6378;42.684;23.372;2022-10-18T05:17:01;35.27;;;21.50;;
12625;SDS011;6378;42.684;23.372;2022-10-18T05:19:27;36.40;;;23.50;;
12625;SDS011;6378;42.684;23.372;2022-10-18T05:21:52;40.80;;;28.33;;
12625;SDS011;6378;42.684;23.372;2022-10-18T05:24:18;45.50;;;25.87;;
12625;SDS011;6378;42.684;23.372;2022-10-18T05:26:43;34.53;;;25.37;;
12625;SDS011;6378;42.684;23.372;2022-10-18T05:29:09;35.97;;;24.37;;
12625;SDS011;6378;42.684;23.372;2022-10-18T05:31:34;35.33;;;22.88;;
12625;SDS011;6378;42.684;23.372;2022-10-18T05:33:59;31.65;;;20.73;;
12625;SDS011;6378;42.684;23.372;2022-10-18T05:36:26;29.48;;;20.38;;
12625;SDS011;6378;42.684;23.372;2022-10-18T05:38:51;28.98;;;19.35;;
12625;SDS011;6378;42.684;23.372;2022-10-18T05:41:18;26.35;;;18.98;;
12625;SDS011;6378;42.684;23.372;2022-10-18T05:43:43;26.83;;;18.25;;
12625;SDS011;6378;42.684;23.372;2022-10-18T05:46:09;36.28;;;22.17;;
12625;SDS011;6378;42.684;23.372;2022-10-18T05:48:34;32.38;;;18.40;;
12625;SDS011;6378;42.684;23.372;2022-10-18T05:51:00;31.50;;;20.55;;
12625;SDS011;6378;42.684;23.372;2022-10-18T05:53:26;25.92;;;18.02;;
12625;SDS011;6378;42.684;23.372;2022-10-18T05:55:51;27.23;;;17.40;;
12625;SDS011;6378;42.684;23.372;2022-10-18T05:58:17;30.30;;;18.83;;
12625;SDS011;6378;42.684;23.372;2022-10-18T06:00:42;32.15;;;21.05;;
12625;SDS011;6378;42.684;23.372;2022-10-18T06:03:08;31.13;;;20.77;;
12625;SDS011;6378;42.684;23.372;2022-10-18T06:05:34;25.52;;;19.83;;
12625;SDS011;6378;42.684;23.372;2022-10-18T06:07:59;29.45;;;19.10;;
12625;SDS011;6378;42.684;23.372;2022-10-18T06:10:25;27.90;;;17.83;;
12625;SDS011;6378;42.684;23.372;2022-10-18T06:12:50;31.42;;;19.02;;
12625;SDS011;6378;42.684;23.372;2022-10-18T06:15:16;25.08;;;18.02;;
12625;SDS011;6378;42.684;23.372;2022-10-18T06:17:41;23.15;;;17.75;;
12625;SDS011;6378;42.684;23.372;2022-10-18T06:20:07;26.63;;;17.95;;
12625;SDS011;6378;42.684;23.372;2022-10-18T06:22:33;20.95;;;16.58;;
12625;SDS011;6378;42.684;23.372;2022-10-18T06:24:58;25.27;;;17.00;;
12625;SDS011;6378;42.684;23.372;2022-10-18T06:27:24;25.42;;;17.30;;
12625;SDS011;6378;42.684;23.372;2022-10-18T06:29:49;23.85;;;15.75;;
12625;SDS011;6378;42.684;23.372;2022-10-18T06:32:15;21.83;;;16.77;;
12625;SDS011;6378;42.684;23.372;2022-10-18T06:34:40;25.00;;;16.13;;
12625;SDS011;6378;42.684;23.372;2022-10-18T06:37:05;22.55;;;16.92;;
12625;SDS011;6378;42.684;23.372;2022-10-18T06:39:32;22.25;;;16.48;;
12625;SDS011;6378;42.684;23.372;2022-10-18T06:41:58;20.33;;;15.43;;
12625;SDS011;6378;42.684;23.372;2022-10-18T06:44:23;20.73;;;15.20;;
12625;SDS011;6378;42.684;23.372;2022-10-18T06:46:49;21.52;;;14.65;;
12625;SDS011;6378;42.684;23.372;2022-10-18T06:49:15;14.70;;;12.02;;
12625;SDS011;6378;42.684;23.372;2022-10-18T06:51:41;20.88;;;14.10;;
12625;SDS011;6378;42.684;23.372;2022-10-18T06:54:07;20.58;;;13.95;;
12625;SDS011;6378;42.684;23.372;2022-10-18T06:56:33;17.00;;;11.05;;
12625;SDS011;6378;42.684;23.372;2022-10-18T06:58:59;14.05;;;10.60;;
12625;SDS011;6378;42.684;23.372;2022-10-18T07:01:25;27.20;;;19.60;;
12625;SDS011;6378;42.684;23.372;2022-10-18T07:03:52;24.40;;;16.15;;
12625;SDS011;6378;42.684;23.372;2022-10-18T07:06:18;21.13;;;15.32;;
12625;SDS011;6378;42.684;23.372;2022-10-18T07:08:45;23.92;;;14.68;;
12625;SDS011;6378;42.684;23.372;2022-10-18T07:11:13;18.73;;;12.20;;
12625;SDS011;6378;42.684;23.372;2022-10-18T07:13:48;16.85;;;12.32;;
12625;SDS011;6378;42.684;23.372;2022-10-18T07:16:16;16.73;;;12.20;;
12625;SDS011;6378;42.684;23.372;2022-10-18T07:18:43;17.98;;;11.50;;
12625;SDS011;6378;42.684;23.372;2022-10-18T07:21:12;16.40;;;10.85;;
12625;SDS011;6378;42.684;23.372;2022-10-18T07:23:39;16.50;;;11.40;;
12625;SDS011;6378;42.684;23.372;2022-10-18T07:28:41;19.55;;;14.18;;
12625;SDS011;6378;42.684;23.372;2022-10-18T07:31:08;24.55;;;15.02;;
12625;SDS011;6378;42.684;23.372;2022-10-18T07:33:34;22.83;;;14.63;;
12625;SDS011;6378;42.684;23.372;2022-10-18T07:36:04;23.98;;;13.63;;
12625;SDS011;6378;42.684;23.372;2022-10-18T07:38:31;25.35;;;15.70;;
12625;SDS011;6378;42.684;23.372;2022-10-18T07:40:57;22.60;;;14.55;;
12625;SDS011;6378;42.684;23.372;2022-10-18T07:43:24;22.70;;;15.05;;
12625;SDS011;6378;42.684;23.372;2022-10-18T07:46:09;22.92;;;14.27;;
12625;SDS011;6378;42.684;23.372;2022-10-18T07:48:34;19.02;;;12.57;;
12625;SDS011;6378;42.684;23.372;2022-10-18T07:51:00;15.88;;;11.90;;
12625;SDS011;6378;42.684;23.372;2022-10-18T07:53:26;23.33;;;14.75;;
12625;SDS011;6378;42.684;23.372;2022-10-18T07:55:57;22.52;;;14.38;;
12625;SDS011;6378;42.684;23.372;2022-10-18T07:58:23;28.45;;;15.60;;
12625;SDS011;6378;42.684;23.372;2022-10-18T08:00:48;22.05;;;13.50;;
12625;SDS011;6378;42.684;23.372;2022-10-18T08:03:14;14.70;;;12.35;;
12625;SDS011;6378;42.684;23.372;2022-10-18T08:05:58;15.27;;;11.85;;
12625;SDS011;6378;42.684;23.372;2022-10-18T08:09:06;17.17;;;11.77;;
12625;SDS011;6378;42.684;23.372;2022-10-18T08:11:31;22.20;;;12.05;;
12625;SDS011;6378;42.684;23.372;2022-10-18T08:13:57;17.73;;;12.48;;
12625;SDS011;6378;42.684;23.372;2022-10-18T08:16:25;17.90;;;12.05;;
12625;SDS011;6378;42.684;23.372;2022-10-18T08:18:52;15.98;;;11.40;;
12625;SDS011;6378;42.684;23.372;2022-10-18T08:21:19;20.58;;;12.60;;
12625;SDS011;6378;42.684;23.372;2022-10-18T08:23:45;17.10;;;12.50;;
12625;SDS011;6378;42.684;23.372;2022-10-18T08:26:13;17.75;;;14.07;;
12625;SDS011;6378;42.684;23.372;2022-10-18T08:28:40;19.20;;;13.05;;
12625;SDS011;6378;42.684;23.372;2022-10-18T08:31:07;18.42;;;13.32;;
12625;SDS011;6378;42.684;23.372;2022-10-18T08:33:35;16.70;;;12.48;;
12625;SDS011;6378;42.684;23.372;2022-10-18T08:36:04;20.27;;;13.00;;
12625;SDS011;6378;42.684;23.372;2022-10-18T09:07:19;20.52;;;14.02;;
12625;SDS011;6378;42.684;23.372;2022-10-18T09:16:02;15.70;;;10.70;;
12625;SDS011;6378;42.684;23.372;2022-10-18T09:22:05;11.90;;;9.00;;
12625;SDS011;6378;42.684;23.372;2022-10-18T09:24:46;13.93;;;9.27;;
12625;SDS011;6378;42.684;23.372;2022-10-18T09:31:16;15.35;;;9.85;;
12625;SDS011;6378;42.684;23.372;2022-10-18T09:34:04;14.80;;;8.48;;
12625;SDS011;6378;42.684;23.372;2022-10-18T09:36:37;11.25;;;7.63;;
12625;SDS011;6378;42.684;23.372;2022-10-18T09:39:04;10.43;;;7.80;;
12625;SDS011;6378;42.684;23.372;2022-10-18T09:46:57;12.55;;;7.53;;
12625;SDS011;6378;42.684;23.372;2022-10-18T09:49:49;8.95;;;6.65;;
12625;SDS011;6378;42.684;23.372;2022-10-18T09:52:40;11.68;;;6.28;;
12625;SDS011;6378;42.684;23.372;2022-10-18T09:55:17;7.95;;;5.78;;
12625;SDS011;6378;42.684;23.372;2022-10-18T09:57:52;7.57;;;5.72;;
12625;SDS011;6378;42.684;23.372;2022-10-18T10:00:37;7.93;;;5.65;;
12625;SDS011;6378;42.684;23.372;2022-10-18T10:06:52;5.60;;;4.22;;
12625;SDS011;6378;42.684;23.372;2022-10-18T10:12:40;5.50;;;4.30;;
12625;SDS011;6378;42.684;23.372;2022-10-18T10:15:24;7.15;;;4.50;;
12625;SDS011;6378;42.684;23.372;2022-10-18T10:18:04;6.47;;;4.75;;
12625;SDS011;6378;42.684;23.372;2022-10-18T10:20:42;6.63;;;5.28;;
12625;SDS011;6378;42.684;23.372;2022-10-18T10:28:57;5.22;;;4.55;;
12625;SDS011;6378;42.684;23.372;2022-10-18T10:31:41;5.82;;;3.80;;
12625;SDS011;6378;42.684;23.372;2022-10-18T10:34:19;4.50;;;3.53;;
12625;SDS011;6378;42.684;23.372;2022-10-18T10:36:51;5.45;;;3.50;;
12625;SDS011;6378;42.684;23.372;2022-10-18T10:39:19;6.25;;;3.65;;
12625;SDS011;6378;42.684;23.372;2022-10-18T10:41:47;5.78;;;3.33;;
12625;SDS011;6378;42.684;23.372;2022-10-18T10:44:15;5.75;;;4.25;;
12625;SDS011;6378;42.684;23.372;2022-10-18T10:46:55;5.78;;;4.20;;
12625;SDS011;6378;42.684;23.372;2022-10-18T10:49:26;6.63;;;4.15;;
12625;SDS011;6378;42.684;23.372;2022-10-18T10:55:32;4.90;;;3.60;;
12625;SDS011;6378;42.684;23.372;2022-10-18T10:58:13;5.20;;;3.97;;
12625;SDS011;6378;42.684;23.372;2022-10-18T11:00:50;5.82;;;3.67;;
12625;SDS011;6378;42.684;23.372;2022-10-18T11:03:57;4.97;;;3.75;;
12625;SDS011;6378;42.684;23.372;2022-10-18T11:12:44;6.10;;;3.40;;
12625;SDS011;6378;42.684;23.372;2022-10-18T11:15:26;8.50;;;3.63;;
12625;SDS011;6378;42.684;23.372;2022-10-18T11:24:02;4.18;;;2.97;;
12625;SDS011;6378;42.684;23.372;2022-10-18T11:29:21;3.47;;;2.58;;
12625;SDS011;6378;42.684;23.372;2022-10-18T11:40:28;3.53;;;2.80;;
12625;SDS011;6378;42.684;23.372;2022-10-18T11:46:17;3.10;;;2.80;;
12625;SDS011;6378;42.684;23.372;2022-10-18T12:00:53;3.03;;;2.47;;
12625;SDS011;6378;42.684;23.372;2022-10-18T12:05:57;3.95;;;2.40;;
12625;SDS011;6378;42.684;23.372;2022-10-18T12:08:32;3.28;;;2.22;;
12625;SDS011;6378;42.684;23.372;2022-10-18T12:11:02;2.05;;;1.85;;
12625;SDS011;6378;42.684;23.372;2022-10-18T12:13:35;2.40;;;1.90;;
12625;SDS011;6378;42.684;23.372;2022-10-18T12:16:07;3.40;;;1.85;;
12625;SDS011;6378;42.684;23.372;2022-10-18T12:18:35;3.35;;;2.03;;
12625;SDS011;6378;42.684;23.372;2022-10-18T12:21:09;2.20;;;2.00;;
12625;SDS011;6378;42.684;23.372;2022-10-18T12:26:10;2.92;;;2.10;;
12625;SDS011;6378;42.684;23.372;2022-10-18T12:31:24;3.78;;;2.35;;
12625;SDS011;6378;42.684;23.372;2022-10-18T12:42:03;3.45;;;2.40;;
12625;SDS011;6378;42.684;23.372;2022-10-18T12:44:30;2.83;;;2.03;;
12625;SDS011;6378;42.684;23.372;2022-10-18T12:46:58;2.20;;;1.90;;
12625;SDS011;6378;42.684;23.372;2022-10-18T12:49:35;4.00;;;2.20;;
12625;SDS011;6378;42.684;23.372;2022-10-18T12:52:06;4.43;;;1.80;;
12625;SDS011;6378;42.684;23.372;2022-10-18T12:54:50;2.60;;;1.90;;
12625;SDS011;6378;42.684;23.372;2022-10-18T12:57:28;4.80;;;2.75;;
12625;SDS011;6378;42.684;23.372;2022-10-18T13:16:32;4.25;;;2.05;;
12625;SDS011;6378;42.684;23.372;2022-10-18T13:24:34;4.10;;;1.90;;
12625;SDS011;6378;42.684;23.372;2022-10-18T13:36:05;3.60;;;2.25;;
12625;SDS011;6378;42.684;23.372;2022-10-18T13:41:25;2.55;;;2.00;;
12625;SDS011;6378;42.684;23.372;2022-10-18T13:51:48;2.53;;;1.80;;
12625;SDS011;6378;42.684;23.372;2022-10-18T13:56:50;4.38;;;2.15;;
12625;SDS011;6378;42.684;23.372;2022-10-18T14:02:33;2.78;;;1.90;;
12625;SDS011;6378;42.684;23.372;2022-10-18T14:07:49;2.40;;;2.08;;
12625;SDS011;6378;42.684;23.372;2022-10-18T14:10:27;2.17;;;1.80;;
12625;SDS011;6378;42.684;23.372;2022-10-18T14:13:17;2.40;;;2.00;;
12625;SDS011;6378;42.684;23.372;2022-10-18T14:15:47;3.95;;;1.90;;
12625;SDS011;6378;42.684;23.372;2022-10-18T14:18:35;4.85;;;2.20;;
12625;SDS011;6378;42.684;23.372;2022-10-18T14:21:10;3.83;;;2.25;;
12625;SDS011;6378;42.684;23.372;2022-10-18T14:23:42;4.50;;;2.28;;
12625;SDS011;6378;42.684;23.372;2022-10-18T14:26:13;2.90;;;2.40;;
12625;SDS011;6378;42.684;23.372;2022-10-18T14:28:40;3.85;;;2.00;;
12625;SDS011;6378;42.684;23.372;2022-10-18T14:31:12;3.83;;;2.47;;
12625;SDS011;6378;42.684;23.372;2022-10-18T14:33:41;4.93;;;2.55;;
12625;SDS011;6378;42.684;23.372;2022-10-18T14:38:50;2.47;;;2.28;;
12625;SDS011;6378;42.684;23.372;2022-10-18T14:43:49;4.75;;;2.38;;
12625;SDS011;6378;42.684;23.372;2022-10-18T14:48:50;5.68;;;2.47;;
12625;SDS011;6378;42.684;23.372;2022-10-18T14:51:20;2.72;;;2.30;;
12625;SDS011;6378;42.684;23.372;2022-10-18T14:53:46;2.53;;;2.28;;
12625;SDS011;6378;42.684;23.372;2022-10-18T14:56:20;3.05;;;2.20;;
12625;SDS011;6378;42.684;23.372;2022-10-18T14:58:49;5.35;;;2.65;;
12625;SDS011;6378;42.684;23.372;2022-10-18T15:01:17;5.47;;;3.10;;
12625;SDS011;6378;42.684;23.372;2022-10-18T15:03:44;5.38;;;2.60;;
12625;SDS011;6378;42.684;23.372;2022-10-18T15:06:14;4.82;;;2.20;;
12625;SDS011;6378;42.684;23.372;2022-10-18T15:08:44;3.20;;;2.70;;
12625;SDS011;6378;42.684;23.372;2022-10-18T15:11:15;2.80;;;2.22;;
12625;SDS011;6378;42.684;23.372;2022-10-18T15:13:45;3.38;;;2.63;;
12625;SDS011;6378;42.684;23.372;2022-10-18T15:16:15;4.15;;;2.58;;
12625;SDS011;6378;42.684;23.372;2022-10-18T15:18:59;6.78;;;2.53;;
12625;SDS011;6378;42.684;23.372;2022-10-18T15:21:25;3.60;;;3.05;;
12625;SDS011;6378;42.684;23.372;2022-10-18T15:23:50;6.90;;;3.83;;
12625;SDS011;6378;42.684;23.372;2022-10-18T15:26:25;7.90;;;3.78;;
12625;SDS011;6378;42.684;23.372;2022-10-18T15:28:54;5.07;;;2.97;;
12625;SDS011;6378;42.684;23.372;2022-10-18T15:31:30;11.80;;;5.68;;
12625;SDS011;6378;42.684;23.372;2022-10-18T15:34:07;8.75;;;5.90;;
12625;SDS011;6378;42.684;23.372;2022-10-18T15:36:40;15.40;;;9.35;;
12625;SDS011;6378;42.684;23.372;2022-10-18T15:39:16;15.70;;;8.95;;
12625;SDS011;6378;42.684;23.372;2022-10-18T15:41:51;13.57;;;7.90;;
12625;SDS011;6378;42.684;23.372;2022-10-18T15:47:22;12.73;;;7.05;;
12625;SDS011;6378;42.684;23.372;2022-10-18T15:49:50;10.68;;;7.57;;
12625;SDS011;6378;42.684;23.372;2022-10-18T15:52:32;10.60;;;7.40;;
12625;SDS011;6378;42.684;23.372;2022-10-18T15:54:58;21.83;;;11.88;;
12625;SDS011;6378;42.684;23.372;2022-10-18T15:57:24;18.60;;;10.80;;
12625;SDS011;6378;42.684;23.372;2022-10-18T15:59:56;11.77;;;8.65;;
12625;SDS011;6378;42.684;23.372;2022-10-18T16:02:25;10.68;;;6.85;;
12625;SDS011;6378;42.684;23.372;2022-10-18T16:04:51;12.05;;;8.23;;
12625;SDS011;6378;42.684;23.372;2022-10-18T16:07:17;13.60;;;6.80;;
12625;SDS011;6378;42.684;23.372;2022-10-18T16:09:42;11.50;;;6.97;;
12625;SDS011;6378;42.684;23.372;2022-10-18T16:12:09;10.27;;;6.60;;
12625;SDS011;6378;42.684;23.372;2022-10-18T16:14:35;11.10;;;6.18;;
12625;SDS011;6378;42.684;23.372;2022-10-18T16:17:01;12.75;;;6.50;;
12625;SDS011;6378;42.684;23.372;2022-10-18T16:19:28;32.38;;;26.02;;
12625;SDS011;6378;42.684;23.372;2022-10-18T16:21:54;30.65;;;18.40;;
12625;SDS011;6378;42.684;23.372;2022-10-18T16:24:20;124.85;;;82.32;;
12625;SDS011;6378;42.684;23.372;2022-10-18T16:26:46;22.25;;;10.57;;
12625;SDS011;6378;42.684;23.372;2022-10-18T16:29:16;17.38;;;7.97;;
12625;SDS011;6378;42.684;23.372;2022-10-18T16:31:45;13.55;;;6.63;;
12625;SDS011;6378;42.684;23.372;2022-10-18T16:34:12;11.73;;;6.65;;
12625;SDS011;6378;42.684;23.372;2022-10-18T16:36:39;9.63;;;6.10;;
12625;SDS011;6378;42.684;23.372;2022-10-18T16:39:05;9.25;;;6.78;;
12625;SDS011;6378;42.684;23.372;2022-10-18T16:41:36;9.27;;;7.25;;
12625;SDS011;6378;42.684;23.372;2022-10-18T16:44:02;8.52;;;5.22;;
12625;SDS011;6378;42.684;23.372;2022-10-18T16:46:29;8.43;;;4.93;;
12625;SDS011;6378;42.684;23.372;2022-10-18T16:48:56;9.45;;;5.22;;
12625;SDS011;6378;42.684;23.372;2022-10-18T16:51:22;6.00;;;5.00;;
12625;SDS011;6378;42.684;23.372;2022-10-18T16:53:47;8.75;;;4.93;;
12625;SDS011;6378;42.684;23.372;2022-10-18T16:56:14;8.35;;;4.95;;
12625;SDS011;6378;42.684;23.372;2022-10-18T16:58:42;12.15;;;5.78;;
12625;SDS011;6378;42.684;23.372;2022-10-18T17:01:11;10.15;;;5.40;;
12625;SDS011;6378;42.684;23.372;2022-10-18T17:03:37;8.23;;;4.90;;
12625;SDS011;6378;42.684;23.372;2022-10-18T17:06:03;6.97;;;5.95;;
12625;SDS011;6378;42.684;23.372;2022-10-18T17:08:29;11.35;;;6.45;;
12625;SDS011;6378;42.684;23.372;2022-10-18T17:10:55;12.88;;;6.70;;
12625;SDS011;6378;42.684;23.372;2022-10-18T17:13:22;8.18;;;6.10;;
12625;SDS011;6378;42.684;23.372;2022-10-18T17:15:50;11.82;;;6.95;;
12625;SDS011;6378;42.684;23.372;2022-10-18T17:18:17;10.23;;;7.07;;
12625;SDS011;6378;42.684;23.372;2022-10-18T17:20:45;15.38;;;7.20;;
12625;SDS011;6378;42.684;23.372;2022-10-18T17:23:12;17.25;;;9.77;;
12625;SDS011;6378;42.684;23.372;2022-10-18T17:25:38;21.83;;;11.07;;
12625;SDS011;6378;42.684;23.372;2022-10-18T17:28:09;23.02;;;11.20;;
12625;SDS011;6378;42.684;23.372;2022-10-18T17:30:39;11.68;;;6.60;;
12625;SDS011;6378;42.684;23.372;2022-10-18T17:33:04;16.13;;;7.00;;
12625;SDS011;6378;42.684;23.372;2022-10-18T17:35:30;9.57;;;5.72;;
12625;SDS011;6378;42.684;23.372;2022-10-18T17:37:55;11.65;;;6.85;;
12625;SDS011;6378;42.684;23.372;2022-10-18T17:40:21;18.05;;;8.90;;
12625;SDS011;6378;42.684;23.372;2022-10-18T17:42:51;19.27;;;10.43;;
12625;SDS011;6378;42.684;23.372;2022-10-18T17:45:17;19.42;;;10.25;;
12625;SDS011;6378;42.684;23.372;2022-10-18T17:47:43;18.63;;;8.70;;
12625;SDS011;6378;42.684;23.372;2022-10-18T17:50:09;17.05;;;8.40;;
12625;SDS011;6378;42.684;23.372;2022-10-18T17:52:34;11.07;;;7.60;;
12625;SDS011;6378;42.684;23.372;2022-10-18T17:55:04;17.58;;;8.18;;
12625;SDS011;6378;42.684;23.372;2022-10-18T17:57:29;12.32;;;6.82;;
12625;SDS011;6378;42.684;23.372;2022-10-18T17:59:55;11.53;;;7.20;;
12625;SDS011;6378;42.684;23.372;2022-10-18T18:02:22;11.80;;;6.85;;
12625;SDS011;6378;42.684;23.372;2022-10-18T18:04:48;11.00;;;6.28;;
12625;SDS011;6378;42.684;23.372;2022-10-18T18:07:13;10.98;;;6.57;;
12625;SDS011;6378;42.684;23.372;2022-10-18T18:09:39;10.25;;;7.15;;
12625;SDS011;6378;42.684;23.372;2022-10-18T18:12:04;10.77;;;7.07;;
12625;SDS011;6378;42.684;23.372;2022-10-18T18:14:30;15.95;;;9.30;;
12625;SDS011;6378;42.684;23.372;2022-10-18T18:16:55;42.45;;;26.75;;